Time;durP1;ratioP1;P1;durP2;ratioP2;P2;SDS_P1;SDS_P2;PMS_P1;PMS_P2;Temp;Humidity;BMP_temperature;BMP_pressure;BME280_temperature;BME280_humidity;BME280_pressure;Samples;Min_cycle;Max_cycle;Signal;HPM_P1;HPM_P2
2022/09/06 00:01:27;;;;;;;8.77;4.55;;;16.50;99.90;;;;;;5023197;28;20052;-80
2022/09/06 00:04:16;;;;;;;5.75;4.05;;;16.50;99.90;;;;;;5036771;28;20041;-80
2022/09/06 00:07:04;;;;;;;6.68;4.55;;;16.30;99.90;;;;;;5027058;28;20061;-80
2022/09/06 00:09:51;;;;;;;5.47;4.40;;;16.20;99.90;;;;;;5031999;28;20100;-80
2022/09/06 00:12:38;;;;;;;7.00;4.25;;;16.00;99.90;;;;;;5031300;28;20050;-80
2022/09/06 00:15:26;;;;;;;8.63;4.68;;;15.80;1.00;;;;;;5036157;28;20120;-81
2022/09/06 00:18:13;;;;;;;7.13;5.10;;;15.80;1.00;;;;;;5035335;28;20043;-81
2022/09/06 00:21:01;;;;;;;5.72;4.47;;;15.80;1.00;;;;;;5036061;28;20107;-81
2022/09/06 00:23:48;;;;;;;7.32;5.05;;;15.80;1.00;;;;;;5034772;28;20042;-81
2022/09/06 00:26:36;;;;;;;10.20;5.13;;;15.60;1.00;;;;;;5023742;28;20046;-81
2022/09/06 00:29:23;;;;;;;7.82;5.28;;;15.60;1.00;;;;;;5026478;28;20060;-80
2022/09/06 00:32:10;;;;;;;12.10;5.40;;;15.60;1.00;;;;;;5031689;28;20045;-80
2022/09/06 00:34:57;;;;;;;6.68;5.45;;;15.60;1.00;;;;;;5036419;28;20045;-81
2022/09/06 00:37:47;;;;;;;6.05;5.05;;;15.60;1.00;;;;;;5034937;28;20052;-80
2022/09/06 00:40:34;;;;;;;7.38;4.78;;;15.70;1.00;;;;;;5024741;28;20111;-81
2022/09/06 00:43:22;;;;;;;9.93;5.80;;;15.70;1.00;;;;;;5019052;28;20436;-80
2022/09/06 00:46:14;;;;;;;6.68;5.55;;;15.60;1.00;;;;;;5035285;28;20153;-81
2022/09/06 00:49:08;;;;;;;7.07;5.35;;;15.50;1.00;;;;;;5035708;28;20064;-81
2022/09/06 00:52:03;;;;;;;7.28;5.55;;;15.40;20.80;;;;;;5026810;28;20045;-81
2022/09/06 00:54:51;;;;;;;9.23;5.75;;;15.40;50.70;;;;;;5019952;28;20054;-80
2022/09/06 00:57:39;;;;;;;8.10;6.05;;;15.40;83.70;;;;;;5046902;28;20045;-80
2022/09/06 01:00:26;;;;;;;11.10;5.97;;;15.30;99.90;;;;;;5048594;28;20046;-80
2022/09/06 01:03:13;;;;;;;6.80;5.97;;;15.30;99.90;;;;;;5021799;28;20095;-81
2022/09/06 01:06:19;;;;;;;8.05;6.30;;;15.30;99.90;;;;;;5031487;28;20049;-81
2022/09/06 01:09:14;;;;;;;10.45;6.82;;;15.30;99.90;;;;;;5045136;28;20030;-81
2022/09/06 01:12:15;;;;;;;7.65;6.10;;;15.40;99.90;;;;;;5044522;28;20042;-80
2022/09/06 01:15:02;;;;;;;9.35;6.22;;;15.30;99.90;;;;;;5040917;28;20042;-80
2022/09/06 01:17:55;;;;;;;8.05;6.57;;;15.40;99.90;;;;;;5048054;28;20128;-81
2022/09/06 01:21:03;;;;;;;9.63;5.65;;;15.40;99.90;;;;;;5041747;28;20056;-81
2022/09/06 01:24:16;;;;;;;5.80;5.30;;;15.50;99.90;;;;;;5047233;28;20041;-81
2022/09/06 01:27:24;;;;;;;9.13;5.45;;;15.50;99.90;;;;;;5033153;28;20038;-80
2022/09/06 01:30:15;;;;;;;9.20;6.20;;;15.40;99.90;;;;;;5038031;28;20037;-81
2022/09/06 01:33:15;;;;;;;7.40;5.68;;;15.40;99.90;;;;;;5018521;28;20054;-82
2022/09/06 01:36:07;;;;;;;8.13;6.05;;;15.40;99.90;;;;;;5020237;28;20049;-82
2022/09/06 01:38:54;;;;;;;7.07;5.95;;;15.40;99.90;;;;;;5009766;28;20439;-82
2022/09/06 01:41:42;;;;;;;7.68;6.43;;;15.50;99.90;;;;;;5018298;28;20058;-82
2022/09/06 01:44:30;;;;;;;9.02;5.72;;;15.50;99.90;;;;;;5017764;28;20050;-81
2022/09/06 01:47:38;;;;;;;7.55;5.95;;;15.50;99.90;;;;;;5001930;28;20057;-81
2022/09/06 01:50:37;;;;;;;11.95;6.07;;;15.50;99.90;;;;;;5007412;28;20049;-81
2022/09/06 01:53:43;;;;;;;8.48;6.28;;;15.40;99.90;;;;;;5014542;28;20054;-81
2022/09/06 01:56:36;;;;;;;10.65;5.82;;;15.40;99.90;;;;;;5008963;28;20089;-81
2022/09/06 01:59:32;;;;;;;8.07;6.28;;;15.40;99.90;;;;;;5013861;28;20725;-81
2022/09/06 02:02:28;;;;;;;9.10;6.13;;;15.60;99.90;;;;;;5010052;28;20046;-82
2022/09/06 02:05:33;;;;;;;7.05;5.82;;;15.70;99.90;;;;;;5000183;28;20078;-82
2022/09/06 02:08:38;;;;;;;9.68;6.63;;;15.70;85.40;;;;;;5012059;28;20108;-81
2022/09/06 02:11:28;;;;;;;8.23;5.82;;;15.70;63.80;;;;;;5004766;28;20051;-81
2022/09/06 02:14:22;;;;;;;8.73;6.45;;;15.70;49.80;;;;;;5011875;28;20050;-81
2022/09/06 02:17:13;;;;;;;8.25;6.18;;;15.90;1.00;;;;;;5009672;28;20128;-81
2022/09/06 02:20:16;;;;;;;9.02;5.88;;;15.90;1.00;;;;;;5004511;28;20185;-81
2022/09/06 02:23:05;;;;;;;;;;;16.00;1.00;;;;;;5012460;28;20480;-82
2022/09/06 02:26:01;;;;;;;6.40;4.43;;;16.20;1.00;;;;;;5009239;28;20268;-81
2022/09/06 02:28:49;;;;;;;9.20;5.65;;;16.50;1.00;;;;;;5013968;28;20054;-82
2022/09/06 02:32:13;;;;;;;6.85;4.90;;;16.90;1.00;;;;;;5012907;28;20382;-81
2022/09/06 02:35:08;;;;;;;10.07;4.88;;;17.20;99.90;;;;;;5013927;28;20049;-81
2022/09/06 02:37:55;;;;;;;5.70;4.03;;;17.40;99.90;;;;;;5021403;28;20193;-81
2022/09/06 02:40:44;;;;;;;5.20;3.78;;;17.60;99.90;;;;;;5020143;28;20057;-81
2022/09/06 02:43:31;;;;;;;5.30;3.70;;;17.80;99.90;;;;;;5032447;28;20248;-82
2022/09/06 02:46:23;;;;;;;6.53;3.78;;;18.00;99.90;;;;;;5019149;28;20054;-82
2022/09/06 02:49:12;;;;;;;4.65;3.28;;;18.20;99.90;;;;;;5025247;28;20107;-82
2022/09/06 02:51:59;;;;;;;6.53;4.10;;;18.30;99.90;;;;;;5032035;28;20412;-82
2022/09/06 02:54:46;;;;;;;6.85;3.85;;;18.40;99.90;;;;;;5031992;28;20517;-81
2022/09/06 02:57:36;;;;;;;7.68;4.10;;;18.40;99.90;;;;;;5027707;28;20677;-81
2022/09/06 03:00:24;;;;;;;6.32;4.07;;;18.40;99.90;;;;;;5030729;28;20037;-82
2022/09/06 03:03:14;;;;;;;4.65;3.72;;;18.30;99.90;;;;;;4999972;28;20449;-82
2022/09/06 03:06:03;;;;;;;9.65;4.30;;;18.10;99.90;;;;;;5025185;28;20108;-81
2022/09/06 03:08:50;;;;;;;5.78;4.75;;;17.90;99.90;;;;;;5023076;28;20481;-81
2022/09/06 03:11:37;;;;;;;6.60;4.65;;;17.60;99.90;;;;;;5033212;28;20064;-81
2022/09/06 03:14:24;;;;;;;5.75;4.53;;;17.50;99.90;;;;;;5017661;28;20045;-81
2022/09/06 03:17:12;;;;;;;9.75;4.20;;;17.40;99.90;;;;;;5024105;28;20107;-81
2022/09/06 03:19:59;;;;;;;5.88;4.30;;;17.30;99.90;;;;;;5028274;28;20123;-81
2022/09/06 03:22:46;;;;;;;9.65;4.57;;;17.30;99.90;;;;;;5016497;28;20338;-81
2022/09/06 03:25:41;;;;;;;6.32;4.70;;;17.20;99.90;;;;;;5033544;28;20060;-81
2022/09/06 03:28:31;;;;;;;7.72;4.68;;;17.10;99.90;;;;;;5029698;28;20116;-81
2022/09/06 03:31:20;;;;;;;9.63;4.60;;;17.00;99.90;;;;;;5021074;28;20049;-82
2022/09/06 03:34:07;;;;;;;6.70;4.90;;;16.80;99.90;;;;;;5018425;28;20061;-80
2022/09/06 03:36:59;;;;;;;5.60;4.68;;;16.60;99.90;;;;;;5018742;28;20166;-81
2022/09/06 03:39:48;;;;;;;7.80;5.65;;;16.50;99.90;;;;;;5035528;28;20123;-81
2022/09/06 03:42:35;;;;;;;6.22;5.57;;;16.40;1.00;;;;;;5037084;28;20041;-81
2022/09/06 03:45:22;;;;;;;7.07;4.78;;;16.50;1.00;;;;;;5036139;28;20132;-81
2022/09/06 03:48:11;;;;;;;12.82;5.30;;;16.30;1.00;;;;;;5032979;28;20084;-82
2022/09/06 03:50:59;;;;;;;7.60;5.50;;;16.30;1.00;;;;;;5034466;28;20512;-82
2022/09/06 03:53:46;;;;;;;7.80;5.45;;;16.20;1.00;;;;;;5003048;28;20057;-81
2022/09/06 03:56:35;;;;;;;7.35;5.28;;;16.10;1.00;;;;;;5036180;28;20045;-81
2022/09/06 03:59:22;;;;;;;6.95;5.00;;;16.10;1.00;;;;;;5032447;28;20046;-81
2022/09/06 04:02:09;;;;;;;8.15;4.90;;;16.10;1.00;;;;;;5020942;28;20143;-81
2022/09/06 04:04:56;;;;;;;8.60;5.97;;;16.10;1.00;;;;;;5032925;28;20061;-81
2022/09/06 04:07:44;;;;;;;6.93;5.50;;;16.10;1.00;;;;;;5033979;28;20069;-82
2022/09/06 04:10:32;;;;;;;10.23;5.45;;;16.00;1.00;;;;;;5020824;28;20049;-81
2022/09/06 04:13:20;;;;;;;8.00;5.57;;;15.90;1.00;;;;;;5032946;28;20464;-81
2022/09/06 04:16:12;;;;;;;7.68;5.70;;;15.80;1.00;;;;;;5030313;28;20046;-80
2022/09/06 04:19:03;;;;;;;8.35;6.43;;;15.70;1.00;;;;;;5032891;28;20441;-80
2022/09/06 04:21:50;;;;;;;7.90;5.82;;;15.70;33.70;;;;;;5013860;28;20045;-81
2022/09/06 04:24:39;;;;;;;12.18;6.18;;;15.70;28.30;;;;;;5015115;28;20436;-80
2022/09/06 04:27:26;;;;;;;9.18;6.50;;;15.80;8.60;;;;;;5033841;28;20127;-80
2022/09/06 04:30:14;;;;;;;9.73;6.40;;;15.80;12.40;;;;;;5024643;28;20071;-80
2022/09/06 04:33:01;;;;;;;9.82;6.68;;;15.60;40.50;;;;;;5031516;28;20077;-80
2022/09/06 04:35:49;;;;;;;15.38;8.07;;;15.60;53.10;;;;;;5017803;28;20448;-80
2022/09/06 04:38:43;;;;;;;7.93;6.20;;;15.60;56.80;;;;;;5026868;28;20092;-80
2022/09/06 04:41:30;;;;;;;10.68;6.57;;;15.70;58.60;;;;;;5017490;28;20552;-80
2022/09/06 04:44:17;;;;;;;8.27;6.13;;;15.80;12.90;;;;;;5035472;28;20120;-80
2022/09/06 04:47:20;;;;;;;7.82;5.47;;;15.90;1.00;;;;;;5034953;28;20049;-80
2022/09/06 04:50:07;;;;;;;6.47;5.35;;;15.90;1.00;;;;;;5022668;28;20092;-80
2022/09/06 04:52:54;;;;;;;8.38;5.53;;;16.00;1.00;;;;;;5035276;28;20049;-79
2022/09/06 04:55:42;;;;;;;9.18;4.80;;;16.20;1.00;;;;;;5027868;28;20053;-79
2022/09/06 04:58:31;;;;;;;8.40;5.07;;;16.50;1.00;;;;;;5031531;28;20046;-79
2022/09/06 05:01:19;;;;;;;12.32;5.93;;;16.50;99.90;;;;;;5030803;28;20049;-79
2022/09/06 05:04:08;;;;;;;9.43;5.70;;;16.40;99.90;;;;;;5034485;28;20340;-79
2022/09/06 05:07:01;;;;;;;6.28;5.05;;;16.30;99.90;;;;;;5016722;28;20100;-79
2022/09/06 05:09:48;;;;;;;6.20;5.27;;;16.20;1.00;;;;;;5018788;28;20195;-78
2022/09/06 05:12:35;;;;;;;10.23;5.40;;;16.10;1.00;;;;;;5033900;28;20212;-77
2022/09/06 05:15:28;;;;;;;8.05;5.30;;;16.20;1.00;;;;;;5033852;28;20049;-78
2022/09/06 05:18:15;;;;;;;7.63;5.50;;;16.10;1.00;;;;;;5019820;28;20080;-77
2022/09/06 05:21:02;;;;;;;6.97;5.32;;;16.10;1.00;;;;;;5033473;28;20575;-78
2022/09/06 05:23:49;;;;;;;6.78;5.22;;;16.10;1.00;;;;;;5031656;28;20057;-77
2022/09/06 05:26:42;;;;;;;;;;;16.30;1.00;;;;;;5034331;28;20477;-78
2022/09/06 05:29:30;;;;;;;6.80;5.40;;;16.40;99.90;;;;;;5032689;28;20023;-79
2022/09/06 05:32:19;;;;;;;13.13;5.88;;;16.50;99.90;;;;;;5031111;28;20049;-78
2022/09/06 05:35:07;;;;;;;10.93;5.60;;;16.50;99.90;;;;;;5029349;28;20108;-79
2022/09/06 05:37:56;;;;;;;8.80;5.43;;;16.60;99.90;;;;;;5022950;28;20132;-80
2022/09/06 05:40:44;;;;;;;7.07;5.30;;;16.60;99.90;;;;;;5016097;28;20465;-79
2022/09/06 05:43:31;;;;;;;10.20;5.22;;;16.70;99.90;;;;;;5009700;28;20042;-79
2022/09/06 05:46:18;;;;;;;7.05;4.63;;;16.80;99.90;;;;;;5031633;28;20467;-79
2022/09/06 05:49:06;;;;;;;6.55;5.20;;;16.90;99.90;;;;;;5029266;28;20103;-81
2022/09/06 05:51:54;;;;;;;8.38;5.40;;;16.90;99.90;;;;;;5023300;28;20381;-83
2022/09/06 05:54:43;;;;;;;7.00;5.07;;;16.90;99.90;;;;;;5014578;28;20045;-82
2022/09/06 06:00:13;;;;;;;10.93;5.40;;;17.00;99.90;;;;;;6039425;22;20909;-88
2022/09/06 06:03:12;;;;;;;5.88;5.30;;;17.00;1.00;;;;;;5031702;28;20049;-90
2022/09/06 06:06:04;;;;;;;10.95;6.03;;;17.00;1.00;;;;;;5043347;28;20057;-90
2022/09/06 06:09:42;;;;;;;12.18;5.78;;;17.00;1.00;;;;;;5035104;28;20100;-90
2022/09/06 06:12:36;;;;;;;9.73;4.95;;;17.00;1.00;;;;;;5028582;28;20085;-89
2022/09/06 06:15:48;;;;;;;;;;;;;;;;;;;;;
2022/09/06 06:19:01;;;;;;;9.48;5.53;;;17.10;1.00;;;;;;4926940;29;20064;-89
2022/09/06 06:21:48;;;;;;;7.05;4.70;;;17.10;1.00;;;;;;4922652;29;20445;-88
2022/09/06 06:24:58;;;;;;;6.93;4.85;;;17.10;1.00;;;;;;4922208;29;20094;-90
2022/09/06 06:28:25;;;;;;;9.95;5.55;;;17.10;1.00;;;;;;4921641;29;20082;-89
2022/09/06 06:31:31;;;;;;;;;;;;;;;;;;;;;
2022/09/06 06:34:27;;;;;;;6.13;5.40;;;16.90;99.90;;;;;;4952190;28;20054;-86
2022/09/06 06:37:15;;;;;;;8.40;5.88;;;16.80;99.90;;;;;;4991065;28;20225;-85
2022/09/06 06:40:08;;;;;;;9.43;5.72;;;16.70;1.00;;;;;;4990483;28;20054;-82
2022/09/06 06:42:56;;;;;;;7.93;5.38;;;16.80;1.00;;;;;;4980947;28;20046;-85
2022/09/06 06:45:48;;;;;;;11.30;5.47;;;17.00;1.00;;;;;;5002914;28;20046;-83
2022/09/06 06:48:39;;;;;;;8.25;5.68;;;17.20;1.00;;;;;;5017833;28;20045;-85
2022/09/06 06:51:29;;;;;;;6.90;4.88;;;17.40;1.00;;;;;;5008068;28;20341;-83
2022/09/06 06:54:17;;;;;;;8.85;5.40;;;17.80;99.90;;;;;;5027508;28;20055;-86
2022/09/06 06:57:08;;;;;;;8.30;4.78;;;18.20;99.90;;;;;;5027052;28;20042;-83
2022/09/06 07:00:00;;;;;;;7.93;4.55;;;18.60;99.90;;;;;;5019793;28;20056;-85
2022/09/06 07:02:48;;;;;;;7.80;3.95;;;19.00;99.90;;;;;;5022841;28;20048;-87
2022/09/06 07:05:44;;;;;;;7.22;3.85;;;19.20;99.90;;;;;;5032718;28;20435;-88
2022/09/06 07:08:58;;;;;;;4.63;3.80;;;19.30;99.90;;;;;;5014471;28;20376;-86
2022/09/06 07:11:50;;;;;;;5.25;3.55;;;19.60;99.90;;;;;;5021123;28;20060;-84
2022/09/06 07:14:37;;;;;;;4.70;3.58;;;19.80;99.90;;;;;;5037504;28;20456;-84
2022/09/06 07:17:26;;;;;;;6.60;3.58;;;19.90;99.90;;;;;;5018130;28;20460;-84
2022/09/06 07:20:16;;;;;;;8.13;4.28;;;20.10;99.90;;;;;;5030009;28;20167;-84
2022/09/06 07:23:04;;;;;;;5.05;3.67;;;20.30;99.90;;;;;;5021026;28;20101;-88
2022/09/06 07:26:19;;;;;;;5.75;3.75;;;20.10;99.90;;;;;;5027851;28;20105;-91
2022/09/06 07:29:12;;;;;;;5.78;4.03;;;20.10;99.90;;;;;;5037931;28;20060;-91
2022/09/06 07:32:06;;;;;;;4.75;3.67;;;20.10;99.90;;;;;;5023995;28;20049;-91
2022/09/06 07:34:58;;;;;;;4.47;3.40;;;20.20;99.90;;;;;;5018979;28;20191;-91
2022/09/06 07:37:56;;;;;;;7.93;3.88;;;20.30;99.90;;;;;;5023723;28;20065;-92
2022/09/06 07:45:31;;;;;;;;;;;;;;;;;;;;;
2022/09/06 08:35:40;;;;;;;9.68;3.08;;;26.00;1.00;;;;;;5889056;22;9147111;-89
2022/09/06 08:39:31;;;;;;;;;;;;;;;;;;;;;
2022/09/06 08:43:08;;;;;;;;;;;;;;;;;;;;;
2022/09/06 08:46:25;;;;;;;;;;;;;;;;;;;;;
2022/09/06 08:49:25;;;;;;;8.43;3.10;;;26.40;1.00;;;;;;6168356;23;20098;-90
2022/09/06 08:53:39;;;;;;;8.52;3.15;;;26.20;1.00;;;;;;6181820;23;20017;-92
2022/09/06 08:57:07;;;;;;;6.30;2.80;;;26.40;1.00;;;;;;6048153;23;20086;-87
2022/09/06 09:31:34;;;;;;;;;;;;;;;;;;;;;
2022/09/06 09:35:24;;;;;;;12.90;2.90;;;25.40;1.00;;;;;;6017360;23;20130;-92
2022/09/06 09:47:31;;;;;;;;;;;;;;;;;;;;;
2022/09/06 09:55:38;;;;;;;;;;;;;;;;;;;;;
2022/09/06 09:58:57;;;;;;;11.02;3.15;;;27.60;1.00;;;;;;5942753;23;20127;-91
2022/09/06 10:01:51;;;;;;;10.02;3.10;;;27.60;1.00;;;;;;6059999;23;20104;-89
2022/09/06 10:18:30;;;;;;;12.10;3.10;;;27.20;1.00;;;;;;5960707;24;20023;-90
2022/09/06 10:22:18;;;;;;;;;;;;;;;;;;;;;
2022/09/06 10:25:36;;;;;;;16.40;3.28;;;27.60;1.00;;;;;;5913218;24;20036;-93
2022/09/06 10:29:32;;;;;;;10.95;3.85;;;26.70;1.00;;;;;;6100883;23;20022;-91
2022/09/06 10:45:23;;;;;;;10.68;3.00;;;25.20;1.00;;;;;;5820289;24;20029;-92
2022/09/06 10:49:06;;;;;;;11.60;3.42;;;25.30;1.00;;;;;;5837263;24;20038;-89
2022/09/06 10:55:49;;;;;;;11.32;3.45;;;25.80;1.00;;;;;;5944495;24;20033;-92
2022/09/06 10:59:15;;;;;;;10.95;3.08;;;25.70;1.00;;;;;;5952071;23;20034;-91
2022/09/06 11:02:48;;;;;;;;;;;;;;;;;;;;;
2022/09/06 11:06:05;;;;;;;17.67;3.63;;;25.50;1.00;;;;;;6193805;23;20029;-86
2022/09/06 11:09:25;;;;;;;10.10;2.92;;;25.60;1.00;;;;;;6174373;23;20108;-90
2022/09/06 11:12:39;;;;;;;13.07;2.92;;;25.60;1.00;;;;;;6169393;23;20404;-88
2022/09/06 11:16:41;;;;;;;;;;;;;;;;;;;;;
2022/09/06 11:19:44;;;;;;;9.63;3.20;;;25.90;1.00;;;;;;6122117;23;20023;-89
2022/09/06 11:31:30;;;;;;;;;;;;;;;;;;;;;
2022/09/06 11:35:51;;;;;;;;;;;;;;;;;;;;;
2022/09/06 11:42:59;;;;;;;7.80;2.45;;;26.20;1.00;;;;;;5990239;23;20029;-92
2022/09/06 11:45:52;;;;;;;9.10;2.83;;;26.50;1.00;;;;;;5992855;23;20036;-91
2022/09/06 11:49:11;;;;;;;;;;;;;;;;;;;;;
2022/09/06 11:57:00;;;;;;;11.13;2.88;;;27.80;1.00;;;;;;5904375;24;20135;-94
2022/09/06 12:05:30;;;;;;;;;;;;;;;;;;;;;
2022/09/06 12:17:06;;;;;;;8.05;2.80;;;30.00;1.00;;;;;;5856116;24;20098;-92
2022/09/06 12:20:53;;;;;;;6.28;1.75;;;31.20;1.00;;;;;;5816868;24;20043;-89
2022/09/06 12:23:54;;;;;;;7.93;1.90;;;31.20;1.00;;;;;;5803238;24;20047;-89
2022/09/06 12:26:53;;;;;;;8.80;2.00;;;31.80;1.00;;;;;;5812527;24;20137;-87
2022/09/06 12:30:35;;;;;;;7.85;2.35;;;32.30;1.00;;;;;;5885676;24;20066;-88
2022/09/06 12:34:35;;;;;;;9.30;2.20;;;32.70;1.00;;;;;;5897318;24;20050;-88
2022/09/06 12:38:14;;;;;;;8.93;2.00;;;33.00;1.00;;;;;;6093098;23;20059;-89
2022/09/06 12:53:55;;;;;;;6.75;2.35;;;31.80;1.00;;;;;;5904373;24;20018;-90
2022/09/06 12:56:46;;;;;;;6.25;2.15;;;29.40;1.00;;;;;;5939434;24;20164;-89
2022/09/06 12:59:53;;;;;;;4.88;2.05;;;28.70;1.00;;;;;;5969536;24;20032;-91
2022/09/06 13:07:07;;;;;;;4.38;1.95;;;27.70;1.00;;;;;;5996152;23;20024;-88
2022/09/06 13:09:57;;;;;;;7.68;1.92;;;27.60;1.00;;;;;;5990000;23;20404;-90
2022/09/06 13:12:49;;;;;;;4.15;1.60;;;27.60;1.00;;;;;;6102218;23;20026;-90
2022/09/06 13:15:45;;;;;;;9.45;2.10;;;27.40;1.00;;;;;;6110681;23;20026;-88
2022/09/06 13:18:34;;;;;;;3.42;1.88;;;27.40;1.00;;;;;;6111580;23;20112;-90
2022/09/06 13:21:33;;;;;;;4.25;1.70;;;27.70;1.00;;;;;;6131697;23;20021;-92
2022/09/06 13:24:34;;;;;;;3.90;1.60;;;28.10;1.00;;;;;;6116317;23;20102;-89
2022/09/06 13:31:30;;;;;;;5.00;2.10;;;29.10;1.00;;;;;;6057644;23;20023;-90
2022/09/06 13:34:55;;;;;;;5.40;1.92;;;29.70;1.00;;;;;;6075305;23;20166;-89
2022/09/06 13:38:13;;;;;;;5.53;2.28;;;30.30;1.00;;;;;;6078745;23;20023;-90
2022/09/06 13:41:26;;;;;;;7.72;2.80;;;30.60;1.00;;;;;;6055568;23;20031;-91
2022/09/06 13:44:14;;;;;;;10.93;2.78;;;30.10;1.00;;;;;;6049402;23;20097;-87
2022/09/06 13:47:02;;;;;;;8.10;2.67;;;29.90;1.00;;;;;;6070221;23;20022;-89
2022/09/06 13:49:53;;;;;;;7.43;2.50;;;29.60;1.00;;;;;;6049748;23;20159;-90
2022/09/06 13:52:43;;;;;;;9.68;2.42;;;29.40;1.00;;;;;;6047484;23;20026;-92
2022/09/06 13:55:47;;;;;;;;;;;;;;;;;;;;;
2022/09/06 14:11:45;;;;;;;4.53;1.77;;;32.20;1.00;;;;;;6161203;23;20234;-89
2022/09/06 14:14:34;;;;;;;4.95;2.03;;;32.90;1.00;;;;;;6158906;23;20076;-85
2022/09/06 14:17:28;;;;;;;6.75;2.10;;;32.40;1.00;;;;;;6162384;23;20282;-84
2022/09/06 14:20:17;;;;;;;7.28;2.30;;;31.60;1.00;;;;;;6171635;23;20025;-84
2022/09/06 14:23:07;;;;;;;4.60;1.90;;;31.40;1.00;;;;;;6149879;23;20040;-85
2022/09/06 14:25:55;;;;;;;3.70;1.55;;;31.40;1.00;;;;;;6179540;23;20018;-86
2022/09/06 14:28:43;;;;;;;6.60;1.75;;;32.50;1.00;;;;;;6182058;23;20030;-85
2022/09/06 14:31:33;;;;;;;5.47;1.77;;;34.30;1.00;;;;;;6148946;23;20105;-88
2022/09/06 14:34:25;;;;;;;9.77;1.90;;;35.60;1.00;;;;;;6143140;23;20050;-85
2022/09/06 14:37:12;;;;;;;;;;;35.90;1.00;;;;;;6143067;23;20078;-86
2022/09/06 14:40:00;;;;;;;5.88;1.80;;;34.40;1.00;;;;;;6145654;23;19931;-84
2022/09/06 14:42:54;;;;;;;5.32;2.08;;;34.90;1.00;;;;;;6129756;23;20029;-85
2022/09/06 14:45:41;;;;;;;9.60;2.20;;;35.10;1.00;;;;;;6128188;23;20057;-85
2022/09/06 14:48:33;;;;;;;7.57;1.85;;;34.20;1.00;;;;;;6128973;23;20132;-86
2022/09/06 14:51:29;;;;;;;4.90;1.80;;;33.00;1.00;;;;;;6127590;23;20032;-86
2022/09/06 14:54:17;;;;;;;3.78;1.73;;;33.30;1.00;;;;;;6127120;23;20032;-88
2022/09/06 14:57:10;;;;;;;4.88;1.88;;;34.40;1.00;;;;;;6130104;23;20026;-88
2022/09/06 14:59:57;;;;;;;5.13;2.30;;;34.80;1.00;;;;;;6113342;23;20033;-86
2022/09/06 15:02:47;;;;;;;5.65;1.80;;;34.50;1.00;;;;;;6129695;23;20057;-85
2022/09/06 15:05:36;;;;;;;6.90;2.17;;;33.10;1.00;;;;;;6127663;23;20030;-86
2022/09/06 15:08:26;;;;;;;4.82;1.70;;;31.40;1.00;;;;;;6127431;23;20036;-86
2022/09/06 15:11:25;;;;;;;4.55;1.30;;;29.50;1.00;;;;;;6126718;23;20021;-86
2022/09/06 15:14:21;;;;;;;3.97;1.40;;;28.20;1.00;;;;;;6127772;23;20037;-87
2022/09/06 15:17:09;;;;;;;3.95;1.58;;;27.60;1.00;;;;;;6127187;23;20159;-88
2022/09/06 15:19:57;;;;;;;2.97;1.20;;;27.20;1.00;;;;;;6127013;23;20036;-87
2022/09/06 15:22:48;;;;;;;4.65;1.60;;;26.80;1.00;;;;;;6127277;23;20026;-89
2022/09/06 15:25:55;;;;;;;5.82;1.60;;;26.80;1.00;;;;;;6112129;23;20100;-86
2022/09/06 15:28:43;;;;;;;7.70;1.90;;;26.90;1.00;;;;;;6126149;23;20026;-87
2022/09/06 15:31:35;;;;;;;6.30;1.90;;;27.00;1.00;;;;;;6128780;23;20349;-87
2022/09/06 15:34:23;;;;;;;;;;;27.00;1.00;;;;;;6127166;23;20022;-89
2022/09/06 15:37:13;;;;;;;7.25;1.95;;;26.90;1.00;;;;;;6125751;23;19921;-86
2022/09/06 15:40:04;;;;;;;2.40;1.50;;;27.00;1.00;;;;;;6126494;23;20088;-88
2022/09/06 15:42:54;;;;;;;3.58;1.90;;;27.10;1.00;;;;;;6127352;23;20030;-88
2022/09/06 15:45:51;;;;;;;3.20;1.55;;;27.10;1.00;;;;;;6127053;23;20033;-89
2022/09/06 15:48:41;;;;;;;3.45;1.58;;;26.90;1.00;;;;;;6125565;23;20106;-88
2022/09/06 15:51:28;;;;;;;4.10;1.67;;;26.50;1.00;;;;;;6128680;23;20110;-86
2022/09/06 15:54:17;;;;;;;6.60;1.42;;;26.30;1.00;;;;;;6134129;23;20032;-88
2022/09/06 15:57:05;;;;;;;8.25;4.85;;;26.30;1.00;;;;;;6133298;23;20052;-88
2022/09/06 15:59:52;;;;;;;19.85;11.00;;;26.30;1.00;;;;;;6133296;23;20314;-85
2022/09/06 16:02:41;;;;;;;14.10;10.00;;;26.60;1.00;;;;;;6130378;23;20233;-87
2022/09/06 16:05:28;;;;;;;5.25;2.17;;;27.80;1.00;;;;;;6129923;23;20033;-88
2022/09/06 16:08:37;;;;;;;8.07;3.10;;;28.30;1.00;;;;;;6129728;23;20048;-84
2022/09/06 16:11:26;;;;;;;4.45;1.58;;;28.50;1.00;;;;;;6127957;23;20018;-86
2022/09/06 16:14:19;;;;;;;4.20;1.92;;;28.70;1.00;;;;;;6127104;23;20033;-86
2022/09/06 16:17:06;;;;;;;4.03;1.45;;;28.80;1.00;;;;;;6125800;23;20026;-84
2022/09/06 16:20:00;;;;;;;9.05;1.75;;;28.80;1.00;;;;;;6125626;23;20033;-84
2022/09/06 16:23:11;;;;;;;4.80;1.38;;;28.90;1.00;;;;;;6126786;23;20306;-86
2022/09/06 16:26:09;;;;;;;4.18;1.00;;;29.50;1.00;;;;;;6128378;23;20022;-83
2022/09/06 16:28:56;;;;;;;2.63;1.00;;;29.10;1.00;;;;;;6110467;23;20032;-86
2022/09/06 16:31:47;;;;;;;3.58;0.98;;;28.60;1.00;;;;;;6129931;23;20026;-84
2022/09/06 16:34:36;;;;;;;5.85;1.20;;;27.90;1.00;;;;;;6159335;23;20098;-87
2022/09/06 16:37:26;;;;;;;3.22;1.20;;;26.90;1.00;;;;;;6137723;23;20026;-85
2022/09/06 16:40:13;;;;;;;4.32;1.70;;;26.00;1.00;;;;;;6159022;23;20263;-86
2022/09/06 16:43:02;;;;;;;4.55;1.92;;;25.60;1.00;;;;;;6156094;23;20025;-86
2022/09/06 16:45:59;;;;;;;4.07;1.33;;;25.40;1.00;;;;;;6157826;23;20022;-85
2022/09/06 16:49:05;;;;;;;4.95;1.45;;;25.20;1.00;;;;;;6156563;23;20108;-86
2022/09/06 16:51:53;;;;;;;5.72;1.55;;;25.00;1.00;;;;;;6158289;23;20428;-84
2022/09/06 16:54:40;;;;;;;4.68;1.40;;;24.80;1.00;;;;;;6139135;23;20088;-83
2022/09/06 16:57:29;;;;;;;3.75;1.35;;;24.70;1.00;;;;;;6160022;23;20022;-85
2022/09/06 17:00:17;;;;;;;3.75;1.52;;;24.60;1.00;;;;;;6161660;23;20029;-87
2022/09/06 17:03:05;;;;;;;5.90;1.90;;;24.50;1.00;;;;;;6164264;23;20022;-87
2022/09/06 17:05:55;;;;;;;7.97;1.85;;;24.40;1.00;;;;;;6168520;23;20045;-86
2022/09/06 17:08:43;;;;;;;7.95;2.00;;;24.30;1.00;;;;;;6139302;23;20352;-88
2022/09/06 17:11:35;;;;;;;5.18;1.90;;;24.20;1.00;;;;;;6138855;23;20025;-88
2022/09/06 17:14:22;;;;;;;5.70;1.60;;;24.10;1.00;;;;;;6157178;23;20027;-88
2022/09/06 17:17:13;;;;;;;7.22;1.98;;;24.00;1.00;;;;;;6156752;23;20025;-85
2022/09/06 17:20:03;;;;;;;10.63;2.28;;;23.90;1.00;;;;;;6136529;23;20048;-89
2022/09/06 17:22:51;;;;;;;11.00;2.42;;;23.80;1.00;;;;;;6160000;23;20030;-88
2022/09/06 17:25:42;;;;;;;8.68;2.75;;;23.70;1.00;;;;;;6159019;23;20100;-88
2022/09/06 17:28:36;;;;;;;9.38;2.85;;;23.60;1.00;;;;;;6139916;23;20033;-89
2022/09/06 17:31:24;;;;;;;9.57;3.10;;;23.60;1.00;;;;;;6156483;23;20119;-86
2022/09/06 17:34:12;;;;;;;9.35;3.15;;;23.50;1.00;;;;;;6138820;23;20354;-87
2022/09/06 17:37:00;;;;;;;8.90;3.25;;;23.40;1.00;;;;;;6140042;23;20049;-88
2022/09/06 17:39:48;;;;;;;6.85;3.63;;;23.30;1.00;;;;;;6141068;23;20025;-88
2022/09/06 17:42:38;;;;;;;8.98;3.40;;;23.10;1.00;;;;;;6148313;23;20029;-87
2022/09/06 17:45:30;;;;;;;8.18;3.20;;;22.90;1.00;;;;;;6174179;23;20088;-87
2022/09/06 17:48:17;;;;;;;7.07;2.70;;;22.60;1.00;;;;;;6175728;23;20085;-89
2022/09/06 17:51:09;;;;;;;5.50;2.55;;;22.30;1.00;;;;;;6171933;23;20036;-88
2022/09/06 17:53:59;;;;;;;3.72;1.50;;;22.10;1.00;;;;;;6153429;23;20022;-89
2022/09/06 17:56:50;;;;;;;6.05;2.20;;;21.90;1.00;;;;;;6182341;23;20029;-85
2022/09/06 17:59:41;;;;;;;7.35;2.03;;;21.90;1.00;;;;;;6180447;23;20062;-85
2022/09/06 18:02:28;;;;;;;6.80;2.08;;;21.80;1.00;;;;;;6179342;23;20033;-86
2022/09/06 18:05:20;;;;;;;3.13;2.00;;;21.80;1.00;;;;;;6179772;23;20145;-87
2022/09/06 18:08:13;;;;;;;4.03;1.85;;;21.70;1.00;;;;;;6176538;23;20040;-87
2022/09/06 18:11:11;;;;;;;;;;;21.60;1.00;;;;;;6180196;23;20273;-84
2022/09/06 18:14:07;;;;;;;5.18;1.90;;;21.40;1.00;;;;;;6160545;23;19992;-88
2022/09/06 18:17:01;;;;;;;4.95;2.05;;;21.30;1.00;;;;;;6153968;23;20025;-87
2022/09/06 18:20:07;;;;;;;5.15;2.08;;;21.20;1.00;;;;;;6147762;23;20026;-87
2022/09/06 18:23:21;;;;;;;4.47;2.35;;;21.00;1.00;;;;;;6162974;23;20026;-87
2022/09/06 18:26:09;;;;;;;6.07;2.83;;;21.00;1.00;;;;;;6159191;23;20028;-88
2022/09/06 18:29:15;;;;;;;8.32;2.35;;;20.90;1.00;;;;;;6137294;23;20491;-87
2022/09/06 18:32:32;;;;;;;8.07;2.97;;;20.80;1.00;;;;;;6141964;23;20032;-88
2022/09/06 18:35:21;;;;;;;6.00;2.13;;;20.70;1.00;;;;;;6157631;23;20029;-87
2022/09/06 18:38:14;;;;;;;4.30;2.20;;;20.60;1.00;;;;;;6137730;23;20105;-89
2022/09/06 18:41:06;;;;;;;4.20;2.50;;;20.60;1.00;;;;;;6157415;23;20329;-89
2022/09/06 18:43:59;;;;;;;6.28;2.42;;;20.50;1.00;;;;;;6136860;23;20036;-90
2022/09/06 18:46:47;;;;;;;;;;;20.50;1.00;;;;;;6160561;23;20029;-88
2022/09/06 18:49:35;;;;;;;5.47;2.42;;;20.40;1.00;;;;;;6155947;23;19979;-89
2022/09/06 18:52:30;;;;;;;5.03;2.53;;;20.40;1.00;;;;;;6157451;23;20025;-89
2022/09/06 18:55:18;;;;;;;5.00;2.05;;;20.20;4.50;;;;;;6162578;23;20145;-90
2022/09/06 18:58:06;;;;;;;7.28;2.60;;;20.10;7.50;;;;;;6155254;23;20032;-89
2022/09/06 19:01:11;;;;;;;8.10;2.65;;;20.00;15.40;;;;;;6158124;23;20048;-89
2022/09/06 19:03:59;;;;;;;4.65;2.63;;;19.80;29.20;;;;;;6141823;23;20060;-87